sensor_id;sensor_type;location;lat;lon;timestamp;pressure;altitude;pressure_sealevel;temperature
20289;BMP180;10303;51.960;8.372;2023-04-03T00:01:02;101878.00;;;6.60
20289;BMP180;10303;51.960;8.372;2023-04-03T00:03:28;101879.00;;;6.60
20289;BMP180;10303;51.960;8.372;2023-04-03T00:05:55;101886.00;;;6.60
20289;BMP180;10303;51.960;8.372;2023-04-03T00:08:21;101884.00;;;6.60
20289;BMP180;10303;51.960;8.372;2023-04-03T00:10:48;101882.00;;;6.60
20289;BMP180;10303;51.960;8.372;2023-04-03T00:13:14;101894.00;;;6.50
20289;BMP180;10303;51.960;8.372;2023-04-03T00:15:41;101896.00;;;6.50
20289;BMP180;10303;51.960;8.372;2023-04-03T00:18:08;101896.00;;;6.50
20289;BMP180;10303;51.960;8.372;2023-04-03T00:20:34;101890.00;;;6.50
20289;BMP180;10303;51.960;8.372;2023-04-03T00:23:02;101889.00;;;6.40
20289;BMP180;10303;51.960;8.372;2023-04-03T00:25:28;101898.00;;;6.40
20289;BMP180;10303;51.960;8.372;2023-04-03T00:27:54;101892.00;;;6.40
20289;BMP180;10303;51.960;8.372;2023-04-03T00:30:23;101889.00;;;6.30
20289;BMP180;10303;51.960;8.372;2023-04-03T00:32:49;101900.00;;;6.30
20289;BMP180;10303;51.960;8.372;2023-04-03T00:35:16;101899.00;;;6.30
20289;BMP180;10303;51.960;8.372;2023-04-03T00:37:43;101906.00;;;6.30
20289;BMP180;10303;51.960;8.372;2023-04-03T00:40:10;101903.00;;;6.20
20289;BMP180;10303;51.960;8.372;2023-04-03T00:42:39;101905.00;;;6.20
20289;BMP180;10303;51.960;8.372;2023-04-03T00:47:31;101917.00;;;6.20
20289;BMP180;10303;51.960;8.372;2023-04-03T00:49:58;101921.00;;;6.10
20289;BMP180;10303;51.960;8.372;2023-04-03T00:52:29;101914.00;;;6.10
20289;BMP180;10303;51.960;8.372;2023-04-03T00:55:02;101914.00;;;6.10
20289;BMP180;10303;51.960;8.372;2023-04-03T00:57:30;101917.00;;;6.10
20289;BMP180;10303;51.960;8.372;2023-04-03T01:00:09;101918.00;;;6.00
20289;BMP180;10303;51.960;8.372;2023-04-03T01:02:36;101917.00;;;6.00
20289;BMP180;10303;51.960;8.372;2023-04-03T01:05:04;101911.00;;;6.00
20289;BMP180;10303;51.960;8.372;2023-04-03T01:07:31;101920.00;;;5.90
20289;BMP180;10303;51.960;8.372;2023-04-03T01:10:02;101913.00;;;5.90
20289;BMP180;10303;51.960;8.372;2023-04-03T01:12:38;101912.00;;;5.90
20289;BMP180;10303;51.960;8.372;2023-04-03T01:15:24;101912.00;;;5.80
20289;BMP180;10303;51.960;8.372;2023-04-03T01:17:58;101911.00;;;5.80
20289;BMP180;10303;51.960;8.372;2023-04-03T01:25:49;101919.00;;;5.70
20289;BMP180;10303;51.960;8.372;2023-04-03T01:28:22;101923.00;;;5.70
20289;BMP180;10303;51.960;8.372;2023-04-03T01:31:02;101921.00;;;5.70
20289;BMP180;10303;51.960;8.372;2023-04-03T01:33:33;101927.00;;;5.70
20289;BMP180;10303;51.960;8.372;2023-04-03T01:35:59;101928.00;;;5.70
20289;BMP180;10303;51.960;8.372;2023-04-03T01:38:26;101933.00;;;5.60
20289;BMP180;10303;51.960;8.372;2023-04-03T01:40:52;101923.00;;;5.60
20289;BMP180;10303;51.960;8.372;2023-04-03T01:43:18;101929.00;;;5.60
20289;BMP180;10303;51.960;8.372;2023-04-03T01:45:44;101923.00;;;5.60
20289;BMP180;10303;51.960;8.372;2023-04-03T01:48:10;101929.00;;;5.50
20289;BMP180;10303;51.960;8.372;2023-04-03T01:50:36;101922.00;;;5.50
20289;BMP180;10303;51.960;8.372;2023-04-03T01:53:02;101931.00;;;5.50
20289;BMP180;10303;51.960;8.372;2023-04-03T01:55:28;101918.00;;;5.50
20289;BMP180;10303;51.960;8.372;2023-04-03T01:57:54;101930.00;;;5.50
20289;BMP180;10303;51.960;8.372;2023-04-03T02:00:20;101930.00;;;5.40
20289;BMP180;10303;51.960;8.372;2023-04-03T02:02:46;101923.00;;;5.40
20289;BMP180;10303;51.960;8.372;2023-04-03T02:05:13;101931.00;;;5.40
20289;BMP180;10303;51.960;8.372;2023-04-03T02:07:39;101933.00;;;5.40
20289;BMP180;10303;51.960;8.372;2023-04-03T02:10:05;101930.00;;;5.30
20289;BMP180;10303;51.960;8.372;2023-04-03T02:12:31;101929.00;;;5.30
20289;BMP180;10303;51.960;8.372;2023-04-03T02:14:58;101922.00;;;5.30
20289;BMP180;10303;51.960;8.372;2023-04-03T02:17:23;101925.00;;;5.20
20289;BMP180;10303;51.960;8.372;2023-04-03T02:19:49;101919.00;;;5.20
20289;BMP180;10303;51.960;8.372;2023-04-03T02:22:15;101935.00;;;5.20
20289;BMP180;10303;51.960;8.372;2023-04-03T02:24:41;101934.00;;;5.10
20289;BMP180;10303;51.960;8.372;2023-04-03T02:27:07;101924.00;;;5.10
20289;BMP180;10303;51.960;8.372;2023-04-03T02:29:33;101932.00;;;5.10
20289;BMP180;10303;51.960;8.372;2023-04-03T02:31:59;101926.00;;;5.10
20289;BMP180;10303;51.960;8.372;2023-04-03T02:34:26;101922.00;;;5.00
20289;BMP180;10303;51.960;8.372;2023-04-03T02:36:52;101928.00;;;5.00
20289;BMP180;10303;51.960;8.372;2023-04-03T02:39:19;101932.00;;;4.90
20289;BMP180;10303;51.960;8.372;2023-04-03T02:41:45;101920.00;;;4.90
20289;BMP180;10303;51.960;8.372;2023-04-03T02:44:17;101930.00;;;4.90
20289;BMP180;10303;51.960;8.372;2023-04-03T02:46:44;101928.00;;;4.90
20289;BMP180;10303;51.960;8.372;2023-04-03T02:49:10;101927.00;;;4.90
20289;BMP180;10303;51.960;8.372;2023-04-03T02:51:36;101924.00;;;4.80
20289;BMP180;10303;51.960;8.372;2023-04-03T02:54:02;101916.00;;;4.80
20289;BMP180;10303;51.960;8.372;2023-04-03T02:56:31;101922.00;;;4.80
20289;BMP180;10303;51.960;8.372;2023-04-03T02:58:57;101926.00;;;4.70
20289;BMP180;10303;51.960;8.372;2023-04-03T03:01:24;101922.00;;;4.70
20289;BMP180;10303;51.960;8.372;2023-04-03T03:03:50;101925.00;;;4.70
20289;BMP180;10303;51.960;8.372;2023-04-03T03:06:17;101920.00;;;4.70
20289;BMP180;10303;51.960;8.372;2023-04-03T03:08:43;101926.00;;;4.70
20289;BMP180;10303;51.960;8.372;2023-04-03T03:11:10;101930.00;;;4.60
20289;BMP180;10303;51.960;8.372;2023-04-03T03:13:36;101925.00;;;4.60
20289;BMP180;10303;51.960;8.372;2023-04-03T03:16:03;101932.00;;;4.60
20289;BMP180;10303;51.960;8.372;2023-04-03T03:18:30;101937.00;;;4.60
20289;BMP180;10303;51.960;8.372;2023-04-03T03:20:58;101935.00;;;4.50
20289;BMP180;10303;51.960;8.372;2023-04-03T03:23:28;101938.00;;;4.50
20289;BMP180;10303;51.960;8.372;2023-04-03T03:26:03;101932.00;;;4.50
20289;BMP180;10303;51.960;8.372;2023-04-03T03:28:30;101936.00;;;4.50
20289;BMP180;10303;51.960;8.372;2023-04-03T03:30:57;101939.00;;;4.50
20289;BMP180;10303;51.960;8.372;2023-04-03T03:33:24;101938.00;;;4.40
20289;BMP180;10303;51.960;8.372;2023-04-03T03:35:52;101946.00;;;4.40
20289;BMP180;10303;51.960;8.372;2023-04-03T03:38:19;101938.00;;;4.40
20289;BMP180;10303;51.960;8.372;2023-04-03T03:40:48;101940.00;;;4.30
20289;BMP180;10303;51.960;8.372;2023-04-03T03:43:17;101951.00;;;4.40
20289;BMP180;10303;51.960;8.372;2023-04-03T03:45:44;101943.00;;;4.40
20289;BMP180;10303;51.960;8.372;2023-04-03T03:48:12;101936.00;;;4.30
20289;BMP180;10303;51.960;8.372;2023-04-03T03:50:38;101933.00;;;4.30
20289;BMP180;10303;51.960;8.372;2023-04-03T03:53:04;101937.00;;;4.30
20289;BMP180;10303;51.960;8.372;2023-04-03T03:55:31;101946.00;;;4.30
20289;BMP180;10303;51.960;8.372;2023-04-03T03:57:58;101952.00;;;4.30
20289;BMP180;10303;51.960;8.372;2023-04-03T04:00:24;101949.00;;;4.30
20289;BMP180;10303;51.960;8.372;2023-04-03T04:02:54;101947.00;;;4.20
20289;BMP180;10303;51.960;8.372;2023-04-03T04:05:22;101946.00;;;4.20
20289;BMP180;10303;51.960;8.372;2023-04-03T04:07:48;101960.00;;;4.20
20289;BMP180;10303;51.960;8.372;2023-04-03T04:10:15;101953.00;;;4.20
20289;BMP180;10303;51.960;8.372;2023-04-03T04:12:42;101966.00;;;4.20
20289;BMP180;10303;51.960;8.372;2023-04-03T04:15:09;101963.00;;;4.10
20289;BMP180;10303;51.960;8.372;2023-04-03T04:17:36;101961.00;;;4.10
20289;BMP180;10303;51.960;8.372;2023-04-03T04:20:05;101965.00;;;4.10
20289;BMP180;10303;51.960;8.372;2023-04-03T04:22:32;101968.00;;;4.10
20289;BMP180;10303;51.960;8.372;2023-04-03T04:24:58;101965.00;;;4.00
20289;BMP180;10303;51.960;8.372;2023-04-03T04:27:25;101968.00;;;4.00
20289;BMP180;10303;51.960;8.372;2023-04-03T04:29:51;101973.00;;;4.00
20289;BMP180;10303;51.960;8.372;2023-04-03T04:32:17;101964.00;;;4.00
20289;BMP180;10303;51.960;8.372;2023-04-03T04:34:44;101970.00;;;4.00
20289;BMP180;10303;51.960;8.372;2023-04-03T04:37:10;101973.00;;;3.90
20289;BMP180;10303;51.960;8.372;2023-04-03T04:39:36;101961.00;;;3.90
20289;BMP180;10303;51.960;8.372;2023-04-03T04:42:03;101978.00;;;3.90
20289;BMP180;10303;51.960;8.372;2023-04-03T04:44:31;101981.00;;;3.90
20289;BMP180;10303;51.960;8.372;2023-04-03T04:46:57;101975.00;;;3.90
20289;BMP180;10303;51.960;8.372;2023-04-03T04:49:23;101966.00;;;3.90
20289;BMP180;10303;51.960;8.372;2023-04-03T04:51:50;101982.00;;;3.90
20289;BMP180;10303;51.960;8.372;2023-04-03T04:54:18;101979.00;;;3.90
20289;BMP180;10303;51.960;8.372;2023-04-03T04:56:46;101979.00;;;3.90
20289;BMP180;10303;51.960;8.372;2023-04-03T04:59:12;101989.00;;;3.90
20289;BMP180;10303;51.960;8.372;2023-04-03T05:01:39;101991.00;;;3.80
20289;BMP180;10303;51.960;8.372;2023-04-03T05:04:10;101999.00;;;3.80
20289;BMP180;10303;51.960;8.372;2023-04-03T05:06:35;101997.00;;;3.80
20289;BMP180;10303;51.960;8.372;2023-04-03T05:09:04;102000.00;;;3.80
20289;BMP180;10303;51.960;8.372;2023-04-03T05:11:32;101994.00;;;3.80
20289;BMP180;10303;51.960;8.372;2023-04-03T05:13:58;101997.00;;;3.80
20289;BMP180;10303;51.960;8.372;2023-04-03T05:16:26;101998.00;;;3.80
20289;BMP180;10303;51.960;8.372;2023-04-03T05:18:52;102001.00;;;3.80
20289;BMP180;10303;51.960;8.372;2023-04-03T05:21:21;102008.00;;;3.70
20289;BMP180;10303;51.960;8.372;2023-04-03T05:23:50;101999.00;;;3.70
20289;BMP180;10303;51.960;8.372;2023-04-03T05:26:17;102000.00;;;3.70
20289;BMP180;10303;51.960;8.372;2023-04-03T05:28:45;102007.00;;;3.70
20289;BMP180;10303;51.960;8.372;2023-04-03T05:31:12;102009.00;;;3.70
20289;BMP180;10303;51.960;8.372;2023-04-03T05:33:38;102018.00;;;3.70
20289;BMP180;10303;51.960;8.372;2023-04-03T05:36:07;102024.00;;;3.80
20289;BMP180;10303;51.960;8.372;2023-04-03T05:38:38;102021.00;;;3.70
20289;BMP180;10303;51.960;8.372;2023-04-03T05:41:05;102023.00;;;3.80
20289;BMP180;10303;51.960;8.372;2023-04-03T05:43:31;102020.00;;;3.80
20289;BMP180;10303;51.960;8.372;2023-04-03T05:45:59;102021.00;;;3.70
20289;BMP180;10303;51.960;8.372;2023-04-03T05:48:26;102028.00;;;3.80
20289;BMP180;10303;51.960;8.372;2023-04-03T05:50:53;102033.00;;;3.80
20289;BMP180;10303;51.960;8.372;2023-04-03T05:53:28;102031.00;;;3.80
20289;BMP180;10303;51.960;8.372;2023-04-03T05:55:57;102028.00;;;3.80
20289;BMP180;10303;51.960;8.372;2023-04-03T05:58:24;102042.00;;;3.80
20289;BMP180;10303;51.960;8.372;2023-04-03T06:00:51;102028.00;;;3.80
20289;BMP180;10303;51.960;8.372;2023-04-03T06:03:17;102040.00;;;3.80
20289;BMP180;10303;51.960;8.372;2023-04-03T06:05:44;102039.00;;;3.90
20289;BMP180;10303;51.960;8.372;2023-04-03T06:08:11;102038.00;;;3.90
20289;BMP180;10303;51.960;8.372;2023-04-03T06:10:37;102041.00;;;3.90
20289;BMP180;10303;51.960;8.372;2023-04-03T06:13:03;102050.00;;;3.90
20289;BMP180;10303;51.960;8.372;2023-04-03T06:15:28;102053.00;;;3.90
20289;BMP180;10303;51.960;8.372;2023-04-03T06:17:54;102055.00;;;4.00
20289;BMP180;10303;51.960;8.372;2023-04-03T06:20:22;102048.00;;;4.00
20289;BMP180;10303;51.960;8.372;2023-04-03T06:22:49;102054.00;;;4.00
20289;BMP180;10303;51.960;8.372;2023-04-03T06:25:16;102050.00;;;4.10
20289;BMP180;10303;51.960;8.372;2023-04-03T06:27:45;102056.00;;;4.10
20289;BMP180;10303;51.960;8.372;2023-04-03T06:30:11;102056.00;;;4.10
20289;BMP180;10303;51.960;8.372;2023-04-03T06:32:38;102057.00;;;4.20
20289;BMP180;10303;51.960;8.372;2023-04-03T06:35:05;102063.00;;;4.20
20289;BMP180;10303;51.960;8.372;2023-04-03T06:37:31;102062.00;;;4.30
20289;BMP180;10303;51.960;8.372;2023-04-03T06:39:58;102058.00;;;4.30
20289;BMP180;10303;51.960;8.372;2023-04-03T06:42:26;102058.00;;;4.40
20289;BMP180;10303;51.960;8.372;2023-04-03T06:44:58;102055.00;;;4.40
20289;BMP180;10303;51.960;8.372;2023-04-03T06:47:24;102061.00;;;4.40
20289;BMP180;10303;51.960;8.372;2023-04-03T06:49:50;102059.00;;;4.50
20289;BMP180;10303;51.960;8.372;2023-04-03T06:52:16;102065.00;;;4.50
20289;BMP180;10303;51.960;8.372;2023-04-03T06:54:42;102074.00;;;4.60
20289;BMP180;10303;51.960;8.372;2023-04-03T06:57:08;102067.00;;;4.60
20289;BMP180;10303;51.960;8.372;2023-04-03T06:59:35;102068.00;;;4.70
20289;BMP180;10303;51.960;8.372;2023-04-03T07:02:02;102086.00;;;4.70
20289;BMP180;10303;51.960;8.372;2023-04-03T07:04:28;102083.00;;;4.80
20289;BMP180;10303;51.960;8.372;2023-04-03T07:06:54;102087.00;;;4.80
20289;BMP180;10303;51.960;8.372;2023-04-03T07:09:20;102087.00;;;4.90
20289;BMP180;10303;51.960;8.372;2023-04-03T07:11:47;102100.00;;;4.90
20289;BMP180;10303;51.960;8.372;2023-04-03T07:14:12;102102.00;;;5.00
20289;BMP180;10303;51.960;8.372;2023-04-03T07:16:38;102099.00;;;5.00
20289;BMP180;10303;51.960;8.372;2023-04-03T07:19:04;102109.00;;;5.10
20289;BMP180;10303;51.960;8.372;2023-04-03T07:21:30;102099.00;;;5.20
20289;BMP180;10303;51.960;8.372;2023-04-03T07:23:56;102104.00;;;5.20
20289;BMP180;10303;51.960;8.372;2023-04-03T07:26:22;102116.00;;;5.30
20289;BMP180;10303;51.960;8.372;2023-04-03T07:28:49;102121.00;;;5.40
20289;BMP180;10303;51.960;8.372;2023-04-03T07:31:16;102118.00;;;5.40
20289;BMP180;10303;51.960;8.372;2023-04-03T07:33:45;102120.00;;;5.50
20289;BMP180;10303;51.960;8.372;2023-04-03T07:36:17;102135.00;;;5.60
20289;BMP180;10303;51.960;8.372;2023-04-03T07:38:43;102127.00;;;5.60
20289;BMP180;10303;51.960;8.372;2023-04-03T07:41:15;102128.00;;;5.70
20289;BMP180;10303;51.960;8.372;2023-04-03T07:43:41;102129.00;;;5.80
20289;BMP180;10303;51.960;8.372;2023-04-03T07:46:08;102122.00;;;5.80
20289;BMP180;10303;51.960;8.372;2023-04-03T07:48:34;102130.00;;;5.90
20289;BMP180;10303;51.960;8.372;2023-04-03T07:51:02;102144.00;;;5.90
20289;BMP180;10303;51.960;8.372;2023-04-03T07:53:30;102139.00;;;6.00
20289;BMP180;10303;51.960;8.372;2023-04-03T07:55:59;102143.00;;;6.10
20289;BMP180;10303;51.960;8.372;2023-04-03T07:58:25;102127.00;;;6.10
20289;BMP180;10303;51.960;8.372;2023-04-03T08:00:52;102138.00;;;6.20
20289;BMP180;10303;51.960;8.372;2023-04-03T08:03:18;102147.00;;;6.30
20289;BMP180;10303;51.960;8.372;2023-04-03T08:05:47;102133.00;;;6.40
20289;BMP180;10303;51.960;8.372;2023-04-03T08:08:18;102150.00;;;6.50
20289;BMP180;10303;51.960;8.372;2023-04-03T08:10:53;102142.00;;;6.60
20289;BMP180;10303;51.960;8.372;2023-04-03T08:13:21;102135.00;;;6.70
20289;BMP180;10303;51.960;8.372;2023-04-03T08:15:47;102137.00;;;6.70
20289;BMP180;10303;51.960;8.372;2023-04-03T08:18:14;102137.00;;;6.80
20289;BMP180;10303;51.960;8.372;2023-04-03T08:20:41;102154.00;;;7.00
20289;BMP180;10303;51.960;8.372;2023-04-03T08:23:08;102142.00;;;7.10
20289;BMP180;10303;51.960;8.372;2023-04-03T08:25:39;102149.00;;;7.20
20289;BMP180;10303;51.960;8.372;2023-04-03T08:28:05;102149.00;;;7.40
20289;BMP180;10303;51.960;8.372;2023-04-03T08:30:32;102148.00;;;7.50
20289;BMP180;10303;51.960;8.372;2023-04-03T08:33:01;102150.00;;;7.70
20289;BMP180;10303;51.960;8.372;2023-04-03T08:35:28;102155.00;;;7.90
20289;BMP180;10303;51.960;8.372;2023-04-03T08:37:54;102151.00;;;8.20
20289;BMP180;10303;51.960;8.372;2023-04-03T08:40:20;102155.00;;;8.40
20289;BMP180;10303;51.960;8.372;2023-04-03T08:45:53;102158.00;;;8.80
20289;BMP180;10303;51.960;8.372;2023-04-03T08:48:36;102159.00;;;9.00
20289;BMP180;10303;51.960;8.372;2023-04-03T08:51:14;102156.00;;;9.20
20289;BMP180;10303;51.960;8.372;2023-04-03T08:56:18;102160.00;;;9.70
20289;BMP180;10303;51.960;8.372;2023-04-03T08:59:06;102158.00;;;9.90
20289;BMP180;10303;51.960;8.372;2023-04-03T09:01:40;102150.00;;;10.10
20289;BMP180;10303;51.960;8.372;2023-04-03T09:04:16;102150.00;;;10.30
20289;BMP180;10303;51.960;8.372;2023-04-03T09:06:47;102156.00;;;10.40
20289;BMP180;10303;51.960;8.372;2023-04-03T09:09:30;102151.00;;;10.60
20289;BMP180;10303;51.960;8.372;2023-04-03T09:12:24;102167.00;;;10.80
20289;BMP180;10303;51.960;8.372;2023-04-03T09:15:23;102154.00;;;10.90
20289;BMP180;10303;51.960;8.372;2023-04-03T09:18:19;102153.00;;;11.20
20289;BMP180;10303;51.960;8.372;2023-04-03T09:23:50;102164.00;;;11.50
20289;BMP180;10303;51.960;8.372;2023-04-03T09:26:34;102161.00;;;11.80
20289;BMP180;10303;51.960;8.372;2023-04-03T09:29:08;102161.00;;;11.90
20289;BMP180;10303;51.960;8.372;2023-04-03T09:31:42;102168.00;;;12.10
20289;BMP180;10303;51.960;8.372;2023-04-03T09:34:34;102161.00;;;12.30
20289;BMP180;10303;51.960;8.372;2023-04-03T09:37:03;102165.00;;;12.50
20289;BMP180;10303;51.960;8.372;2023-04-03T09:39:50;102165.00;;;12.60
20289;BMP180;10303;51.960;8.372;2023-04-03T09:42:23;102159.00;;;12.80
20289;BMP180;10303;51.960;8.372;2023-04-03T09:44:56;102158.00;;;13.00
20289;BMP180;10303;51.960;8.372;2023-04-03T09:47:35;102149.00;;;13.10
20289;BMP180;10303;51.960;8.372;2023-04-03T09:50:21;102155.00;;;13.10
20289;BMP180;10303;51.960;8.372;2023-04-03T09:52:50;102152.00;;;13.20
20289;BMP180;10303;51.960;8.372;2023-04-03T09:55:21;102159.00;;;13.40
20289;BMP180;10303;51.960;8.372;2023-04-03T09:57:54;102144.00;;;13.50
20289;BMP180;10303;51.960;8.372;2023-04-03T10:00:31;102157.00;;;13.70
20289;BMP180;10303;51.960;8.372;2023-04-03T10:02:59;102166.00;;;14.00
20289;BMP180;10303;51.960;8.372;2023-04-03T10:05:36;102153.00;;;14.10
20289;BMP180;10303;51.960;8.372;2023-04-03T10:08:09;102151.00;;;14.10
20289;BMP180;10303;51.960;8.372;2023-04-03T10:10:37;102153.00;;;14.20
20289;BMP180;10303;51.960;8.372;2023-04-03T10:13:20;102146.00;;;14.20
20289;BMP180;10303;51.960;8.372;2023-04-03T10:16:06;102149.00;;;14.10
20289;BMP180;10303;51.960;8.372;2023-04-03T10:22:00;102153.00;;;14.00
20289;BMP180;10303;51.960;8.372;2023-04-03T10:25:02;102146.00;;;13.80
20289;BMP180;10303;51.960;8.372;2023-04-03T10:28:00;102147.00;;;13.90
20289;BMP180;10303;51.960;8.372;2023-04-03T10:30:45;102145.00;;;14.00
20289;BMP180;10303;51.960;8.372;2023-04-03T10:42:50;102114.00;;;14.60
20289;BMP180;10303;51.960;8.372;2023-04-03T10:48:17;102139.00;;;14.90
20289;BMP180;10303;51.960;8.372;2023-04-03T10:56:48;102121.00;;;15.40
20289;BMP180;10303;51.960;8.372;2023-04-03T10:59:31;102118.00;;;15.50
20289;BMP180;10303;51.960;8.372;2023-04-03T11:04:51;102120.00;;;15.60
20289;BMP180;10303;51.960;8.372;2023-04-03T11:07:26;102111.00;;;15.40
20289;BMP180;10303;51.960;8.372;2023-04-03T11:10:20;102114.00;;;15.30
20289;BMP180;10303;51.960;8.372;2023-04-03T11:13:02;102114.00;;;15.10
20289;BMP180;10303;51.960;8.372;2023-04-03T11:15:32;102115.00;;;15.00
20289;BMP180;10303;51.960;8.372;2023-04-03T11:18:09;102117.00;;;14.70
20289;BMP180;10303;51.960;8.372;2023-04-03T11:20:37;102118.00;;;14.70
20289;BMP180;10303;51.960;8.372;2023-04-03T11:23:26;102117.00;;;14.60
20289;BMP180;10303;51.960;8.372;2023-04-03T11:26:11;102108.00;;;14.80
20289;BMP180;10303;51.960;8.372;2023-04-03T11:28:39;102104.00;;;14.90
20289;BMP180;10303;51.960;8.372;2023-04-03T11:31:55;102100.00;;;14.80
20289;BMP180;10303;51.960;8.372;2023-04-03T11:34:35;102100.00;;;14.90
20289;BMP180;10303;51.960;8.372;2023-04-03T11:37:23;102095.00;;;15.20
20289;BMP180;10303;51.960;8.372;2023-04-03T11:40:13;102096.00;;;15.50
20289;BMP180;10303;51.960;8.372;2023-04-03T11:43:01;102098.00;;;15.80
20289;BMP180;10303;51.960;8.372;2023-04-03T11:45:38;102091.00;;;16.00
20289;BMP180;10303;51.960;8.372;2023-04-03T11:50:47;102092.00;;;16.00
20289;BMP180;10303;51.960;8.372;2023-04-03T11:55:52;102088.00;;;15.90
20289;BMP180;10303;51.960;8.372;2023-04-03T11:58:25;102082.00;;;15.70
20289;BMP180;10303;51.960;8.372;2023-04-03T12:01:04;102083.00;;;15.50
20289;BMP180;10303;51.960;8.372;2023-04-03T12:03:57;102078.00;;;15.20
20289;BMP180;10303;51.960;8.372;2023-04-03T12:08:58;102076.00;;;14.90
20289;BMP180;10303;51.960;8.372;2023-04-03T12:11:30;102063.00;;;14.60
20289;BMP180;10303;51.960;8.372;2023-04-03T12:16:27;102072.00;;;14.30
20289;BMP180;10303;51.960;8.372;2023-04-03T12:18:58;102067.00;;;14.30
20289;BMP180;10303;51.960;8.372;2023-04-03T12:29:25;102051.00;;;14.50
20289;BMP180;10303;51.960;8.372;2023-04-03T12:43:54;102042.00;;;14.20
20289;BMP180;10303;51.960;8.372;2023-04-03T12:46:28;102042.00;;;14.20
20289;BMP180;10303;51.960;8.372;2023-04-03T12:48:59;102025.00;;;14.10
20289;BMP180;10303;51.960;8.372;2023-04-03T12:51:38;102023.00;;;14.00
20289;BMP180;10303;51.960;8.372;2023-04-03T12:56:49;102033.00;;;14.00
20289;BMP180;10303;51.960;8.372;2023-04-03T12:59:23;102023.00;;;14.20
20289;BMP180;10303;51.960;8.372;2023-04-03T13:01:58;102007.00;;;14.40
20289;BMP180;10303;51.960;8.372;2023-04-03T13:04:26;102018.00;;;14.60
20289;BMP180;10303;51.960;8.372;2023-04-03T13:06:52;102023.00;;;14.80
20289;BMP180;10303;51.960;8.372;2023-04-03T13:09:29;102009.00;;;15.10
20289;BMP180;10303;51.960;8.372;2023-04-03T13:12:10;102020.00;;;15.20
20289;BMP180;10303;51.960;8.372;2023-04-03T13:14:37;102007.00;;;15.40
20289;BMP180;10303;51.960;8.372;2023-04-03T13:17:13;102015.00;;;15.40
20289;BMP180;10303;51.960;8.372;2023-04-03T13:19:40;102011.00;;;15.40
20289;BMP180;10303;51.960;8.372;2023-04-03T13:22:33;102009.00;;;15.40
20289;BMP180;10303;51.960;8.372;2023-04-03T13:25:09;101998.00;;;15.60
20289;BMP180;10303;51.960;8.372;2023-04-03T13:27:38;101999.00;;;15.80
20289;BMP180;10303;51.960;8.372;2023-04-03T13:30:06;102001.00;;;15.90
20289;BMP180;10303;51.960;8.372;2023-04-03T13:32:33;102004.00;;;16.00
20289;BMP180;10303;51.960;8.372;2023-04-03T13:34:59;102009.00;;;16.00
20289;BMP180;10303;51.960;8.372;2023-04-03T13:37:32;102009.00;;;15.90
20289;BMP180;10303;51.960;8.372;2023-04-03T13:42:38;102010.00;;;15.80
20289;BMP180;10303;51.960;8.372;2023-04-03T13:45:38;101999.00;;;15.70
20289;BMP180;10303;51.960;8.372;2023-04-03T13:48:19;101991.00;;;15.50
20289;BMP180;10303;51.960;8.372;2023-04-03T13:51:01;101997.00;;;15.40
20289;BMP180;10303;51.960;8.372;2023-04-03T13:53:32;101994.00;;;15.30
20289;BMP180;10303;51.960;8.372;2023-04-03T13:56:08;101990.00;;;15.20
20289;BMP180;10303;51.960;8.372;2023-04-03T13:58:36;101991.00;;;15.00
20289;BMP180;10303;51.960;8.372;2023-04-03T14:01:19;101980.00;;;14.90
20289;BMP180;10303;51.960;8.372;2023-04-03T14:04:15;101980.00;;;14.90
20289;BMP180;10303;51.960;8.372;2023-04-03T14:06:44;101983.00;;;14.90
20289;BMP180;10303;51.960;8.372;2023-04-03T14:09:10;101969.00;;;14.90
20289;BMP180;10303;51.960;8.372;2023-04-03T14:11:36;101967.00;;;14.90
20289;BMP180;10303;51.960;8.372;2023-04-03T14:14:13;101962.00;;;14.90
20289;BMP180;10303;51.960;8.372;2023-04-03T14:16:43;101959.00;;;14.90
20289;BMP180;10303;51.960;8.372;2023-04-03T14:19:27;101970.00;;;15.00
20289;BMP180;10303;51.960;8.372;2023-04-03T14:21:55;101964.00;;;15.00
20289;BMP180;10303;51.960;8.372;2023-04-03T14:24:22;101965.00;;;15.00
20289;BMP180;10303;51.960;8.372;2023-04-03T14:26:51;101948.00;;;15.00
20289;BMP180;10303;51.960;8.372;2023-04-03T14:29:18;101950.00;;;15.10
20289;BMP180;10303;51.960;8.372;2023-04-03T14:31:48;101944.00;;;15.10
20289;BMP180;10303;51.960;8.372;2023-04-03T14:34:16;101945.00;;;15.20
20289;BMP180;10303;51.960;8.372;2023-04-03T14:36:44;101943.00;;;15.10
20289;BMP180;10303;51.960;8.372;2023-04-03T14:39:18;101927.00;;;15.10
20289;BMP180;10303;51.960;8.372;2023-04-03T14:41:45;101933.00;;;15.10
20289;BMP180;10303;51.960;8.372;2023-04-03T14:44:12;101928.00;;;15.10
20289;BMP180;10303;51.960;8.372;2023-04-03T14:46:42;101918.00;;;15.20
20289;BMP180;10303;51.960;8.372;2023-04-03T14:49:27;101922.00;;;15.20
20289;BMP180;10303;51.960;8.372;2023-04-03T14:51:56;101920.00;;;15.30
20289;BMP180;10303;51.960;8.372;2023-04-03T14:54:23;101916.00;;;15.40
20289;BMP180;10303;51.960;8.372;2023-04-03T14:56:54;101919.00;;;15.40
20289;BMP180;10303;51.960;8.372;2023-04-03T14:59:22;101915.00;;;15.40
20289;BMP180;10303;51.960;8.372;2023-04-03T15:01:48;101920.00;;;15.50
20289;BMP180;10303;51.960;8.372;2023-04-03T15:04:17;101908.00;;;15.50
20289;BMP180;10303;51.960;8.372;2023-04-03T15:06:46;101911.00;;;15.50
20289;BMP180;10303;51.960;8.372;2023-04-03T15:09:22;101905.00;;;15.40
20289;BMP180;10303;51.960;8.372;2023-04-03T15:11:51;101914.00;;;15.30
20289;BMP180;10303;51.960;8.372;2023-04-03T15:14:18;101925.00;;;15.20
20289;BMP180;10303;51.960;8.372;2023-04-03T15:16:44;101915.00;;;15.10
20289;BMP180;10303;51.960;8.372;2023-04-03T15:19:11;101914.00;;;15.10
20289;BMP180;10303;51.960;8.372;2023-04-03T15:21:38;101919.00;;;15.10
20289;BMP180;10303;51.960;8.372;2023-04-03T15:24:05;101922.00;;;15.00
20289;BMP180;10303;51.960;8.372;2023-04-03T15:26:31;101920.00;;;14.90
20289;BMP180;10303;51.960;8.372;2023-04-03T15:28:58;101911.00;;;14.80
20289;BMP180;10303;51.960;8.372;2023-04-03T15:31:24;101912.00;;;14.70
20289;BMP180;10303;51.960;8.372;2023-04-03T15:33:49;101911.00;;;14.60
20289;BMP180;10303;51.960;8.372;2023-04-03T15:36:15;101903.00;;;14.50
20289;BMP180;10303;51.960;8.372;2023-04-03T15:38:41;101911.00;;;14.50